createdAt,value
2023-02-01T00:00:56.198Z,3.31
2023-02-01T00:03:24.428Z,3.32
2023-02-01T00:06:00.767Z,3.33
2023-02-01T00:08:29.112Z,3.31
2023-02-01T00:11:01.468Z,3.33
2023-02-01T00:13:33.529Z,3.32
2023-02-01T00:16:08.724Z,3.37
2023-02-01T00:18:37.725Z,3.31
2023-02-01T00:21:07.421Z,3.24
2023-02-01T00:23:36.296Z,3.25
2023-02-01T00:26:05.625Z,3.28
2023-02-01T00:28:34.000Z,3.21
2023-02-01T00:31:03.474Z,3.21
2023-02-01T00:33:32.422Z,3.19
2023-02-01T00:36:01.225Z,3.22
2023-02-01T00:38:31.319Z,3.21
2023-02-01T00:41:04.296Z,3.18
2023-02-01T00:43:33.007Z,3.16
2023-02-01T00:46:01.331Z,3.14
2023-02-01T00:48:29.676Z,3.17
2023-02-01T00:51:01.562Z,3.11
2023-02-01T00:53:32.180Z,3.13
2023-02-01T00:56:00.745Z,3.16
2023-02-01T00:58:29.882Z,3.14
2023-02-01T01:01:05.856Z,3.16
2023-02-01T01:03:35.679Z,3.17
2023-02-01T01:06:06.011Z,3.18
2023-02-01T01:08:35.997Z,3.19
2023-02-01T01:11:07.452Z,3.23
2023-02-01T01:13:35.969Z,3.24
2023-02-01T01:16:04.935Z,3.27
2023-02-01T01:18:34.081Z,3.26
2023-02-01T01:21:03.272Z,3.23
2023-02-01T01:23:31.736Z,3.27
2023-02-01T01:26:01.404Z,3.28
2023-02-01T01:28:29.971Z,3.32
2023-02-01T01:30:58.502Z,3.33
2023-02-01T01:33:27.554Z,3.35
2023-02-01T01:35:56.040Z,3.36
2023-02-01T01:38:24.453Z,3.32
2023-02-01T01:40:52.608Z,3.33
2023-02-01T01:43:23.574Z,3.34
2023-02-01T01:45:53.545Z,3.35
2023-02-01T01:48:26.188Z,3.36
2023-02-01T01:50:59.669Z,3.37
2023-02-01T01:53:30.310Z,3.35
2023-02-01T01:55:59.071Z,3.39
2023-02-01T01:58:29.961Z,3.40
2023-02-01T02:00:58.262Z,3.42
2023-02-01T02:03:31.208Z,3.41
2023-02-01T02:06:01.157Z,3.43
2023-02-01T02:08:29.634Z,3.41
2023-02-01T02:11:04.255Z,3.40
2023-02-01T02:13:36.480Z,3.40
2023-02-01T02:16:23.835Z,3.41
2023-02-01T02:18:59.252Z,3.40
2023-02-01T02:21:45.027Z,3.41
2023-02-01T02:24:29.883Z,3.43
2023-02-01T02:27:26.767Z,3.41
2023-02-01T02:30:29.550Z,3.44
2023-02-01T02:33:29.128Z,3.42
2023-02-01T02:36:02.426Z,3.45
2023-02-01T02:38:35.014Z,3.41
2023-02-01T02:41:08.998Z,3.38
2023-02-01T02:43:57.704Z,3.33
2023-02-01T02:46:45.047Z,3.34
2023-02-01T02:49:16.062Z,3.32
2023-02-01T02:52:06.057Z,3.31
2023-02-01T02:58:04.173Z,3.33
2023-02-01T03:00:52.209Z,3.28
2023-02-01T03:03:38.005Z,3.27
2023-02-01T03:06:06.746Z,3.27
2023-02-01T03:08:36.647Z,3.23
2023-02-01T03:11:07.552Z,3.24
2023-02-01T03:13:40.034Z,3.21
2023-02-01T03:16:15.497Z,3.21
2023-02-01T03:18:49.497Z,3.20
2023-02-01T03:21:20.851Z,3.23
2023-02-01T03:23:51.777Z,3.22
2023-02-01T03:26:21.809Z,3.20
2023-02-01T03:28:55.400Z,3.22
2023-02-01T03:31:24.738Z,3.20
2023-02-01T03:33:53.749Z,3.22
2023-02-01T03:36:28.100Z,3.23
2023-02-01T03:39:03.870Z,3.17
2023-02-01T03:41:38.155Z,3.15
2023-02-01T03:44:11.581Z,3.09
2023-02-01T03:46:42.953Z,3.08
2023-02-01T03:49:20.723Z,3.11
2023-02-01T03:51:49.964Z,3.14
2023-02-01T03:54:20.185Z,3.11
2023-02-01T03:56:49.970Z,3.10
2023-02-01T03:59:18.782Z,3.07
2023-02-01T04:01:48.081Z,3.03
2023-02-01T04:04:20.957Z,3.02
2023-02-01T04:06:52.578Z,3.01
2023-02-01T04:09:23.257Z,3.06
2023-02-01T04:11:51.574Z,3.04
2023-02-01T04:14:19.830Z,3.02
2023-02-01T04:16:48.121Z,2.97
2023-02-01T04:19:16.313Z,2.98
2023-02-01T04:21:44.521Z,2.95
2023-02-01T04:24:13.049Z,2.93
2023-02-01T04:26:44.221Z,2.92
2023-02-01T04:29:12.667Z,2.90
2023-02-01T04:31:41.291Z,2.88
2023-02-01T04:34:09.481Z,2.90
2023-02-01T04:36:39.936Z,2.88
2023-02-01T04:39:08.075Z,2.87
2023-02-01T04:41:36.201Z,2.88
2023-02-01T04:44:05.976Z,2.85
2023-02-01T04:46:34.386Z,2.89
2023-02-01T04:49:02.530Z,2.87
2023-02-01T04:51:31.280Z,2.86
2023-02-01T04:53:59.699Z,2.90
2023-02-01T04:56:28.056Z,2.92
2023-02-01T04:58:56.994Z,2.94
2023-02-01T05:01:27.029Z,2.96
2023-02-01T05:03:55.475Z,2.94
2023-02-01T05:06:24.358Z,2.98
2023-02-01T05:08:52.646Z,3.03
2023-02-01T05:11:38.462Z,3.07
2023-02-01T05:14:06.674Z,3.08
2023-02-01T05:16:36.130Z,3.08
2023-02-01T05:19:04.314Z,3.07
2023-02-01T05:21:32.336Z,3.05
2023-02-01T05:24:14.291Z,3.08
2023-02-01T05:26:43.037Z,3.11
2023-02-01T05:29:11.957Z,3.11
2023-02-01T05:31:41.690Z,3.13
2023-02-01T05:34:10.563Z,3.14
2023-02-01T05:36:38.843Z,3.15
2023-02-01T05:39:07.304Z,3.18
2023-02-01T05:41:35.638Z,3.20
2023-02-01T05:44:03.865Z,3.21
2023-02-01T05:46:32.061Z,3.20
2023-02-01T05:49:01.782Z,3.22
2023-02-01T05:51:30.109Z,3.26
2023-02-01T05:53:58.331Z,3.26
2023-02-01T05:56:26.736Z,3.25
2023-02-01T05:58:55.176Z,3.28
2023-02-01T06:01:23.836Z,3.29
2023-02-01T06:03:52.219Z,3.29
2023-02-01T06:06:21.683Z,3.27
2023-02-01T06:08:49.891Z,3.27
2023-02-01T06:11:31.889Z,3.28
2023-02-01T06:14:00.861Z,3.29
2023-02-01T06:16:29.257Z,3.29
2023-02-01T06:18:57.574Z,3.29
2023-02-01T06:21:27.062Z,3.32
2023-02-01T06:23:55.851Z,3.34
2023-02-01T06:26:24.441Z,3.34
2023-02-01T06:28:53.015Z,3.36
2023-02-01T06:31:21.515Z,3.37
2023-02-01T06:33:49.898Z,3.36
2023-02-01T06:36:19.763Z,3.38
2023-02-01T06:38:49.509Z,3.37
2023-02-01T06:41:17.951Z,3.38
2023-02-01T06:43:46.665Z,3.39
2023-02-01T06:46:15.558Z,3.38
2023-02-01T06:48:43.754Z,3.41
2023-02-01T06:51:21.624Z,3.40
2023-02-01T06:53:51.131Z,3.41
2023-02-01T06:56:19.323Z,3.39
2023-02-01T06:58:47.650Z,3.41
2023-02-01T07:01:16.398Z,3.42
2023-02-01T07:03:45.041Z,3.42
2023-02-01T07:06:13.180Z,3.40
2023-02-01T07:08:41.369Z,3.44
2023-02-01T07:11:12.729Z,3.46
2023-02-01T07:13:41.448Z,3.48
2023-02-01T07:16:12.773Z,3.49
2023-02-01T07:18:41.068Z,3.53
2023-02-01T07:21:09.664Z,3.55
2023-02-01T07:23:41.037Z,3.56
2023-02-01T07:26:13.279Z,3.60
2023-02-01T07:28:41.716Z,3.59
2023-02-01T07:31:12.603Z,3.61
2023-02-01T07:33:40.771Z,3.61
2023-02-01T07:36:13.919Z,3.61
2023-02-01T07:38:42.166Z,3.63
2023-02-01T07:41:12.414Z,3.65
2023-02-01T07:43:40.912Z,3.66
2023-02-01T07:46:09.322Z,3.67
2023-02-01T07:48:37.431Z,3.68
2023-02-01T07:51:07.375Z,3.69
2023-02-01T07:53:36.306Z,3.71
2023-02-01T07:56:10.601Z,3.73
2023-02-01T07:58:41.296Z,3.73
2023-02-01T08:01:22.159Z,3.77
2023-02-01T08:03:51.561Z,3.80
2023-02-01T08:06:21.030Z,3.81
2023-02-01T08:08:49.145Z,3.83
2023-02-01T08:11:18.027Z,3.83
2023-02-01T08:13:47.925Z,3.84
2023-02-01T08:16:18.074Z,3.85
2023-02-01T08:18:46.752Z,3.85
2023-02-01T08:21:16.672Z,3.89
2023-02-01T08:23:45.582Z,3.94
2023-02-01T08:26:15.780Z,3.94
2023-02-01T08:28:45.816Z,3.95
2023-02-01T08:31:16.982Z,3.99
2023-02-01T08:33:46.274Z,4.06
2023-02-01T08:36:14.326Z,4.09
2023-02-01T08:39:10.109Z,4.10
2023-02-01T08:41:38.303Z,4.11
2023-02-01T08:44:06.982Z,4.13
2023-02-01T08:46:36.510Z,4.14
2023-02-01T08:49:04.743Z,4.16
2023-02-01T08:51:32.930Z,4.18
2023-02-01T08:54:02.074Z,4.20
2023-02-01T08:56:30.368Z,4.22
2023-02-01T08:58:58.784Z,4.23
2023-02-01T09:01:26.876Z,4.26
2023-02-01T09:03:56.532Z,4.26
2023-02-01T09:06:24.964Z,4.27
2023-02-01T09:08:53.224Z,4.33
2023-02-01T09:11:21.531Z,4.39
2023-02-01T09:13:50.388Z,4.45
2023-02-01T09:16:18.712Z,4.52
2023-02-01T09:18:56.139Z,4.56
2023-02-01T09:21:31.378Z,4.58
2023-02-01T09:23:59.717Z,4.59
2023-02-01T09:26:32.542Z,4.63
2023-02-01T09:29:01.379Z,4.68
2023-02-01T09:31:29.972Z,4.66
2023-02-01T09:33:58.542Z,4.64
2023-02-01T09:36:26.719Z,4.68
2023-02-01T09:38:56.182Z,4.72
2023-02-01T09:41:40.106Z,4.76
2023-02-01T09:44:22.300Z,4.75
2023-02-01T09:46:52.300Z,4.73
2023-02-01T09:49:28.474Z,4.69
2023-02-01T09:51:58.019Z,4.66
2023-02-01T09:54:30.816Z,4.62
2023-02-01T09:57:04.613Z,4.62
2023-02-01T09:59:37.519Z,4.63
2023-02-01T10:02:10.661Z,4.59
2023-02-01T10:04:39.441Z,4.60
2023-02-01T10:07:26.120Z,4.61
2023-02-01T10:10:01.240Z,4.63
2023-02-01T10:12:51.701Z,4.61
2023-02-01T10:15:35.684Z,4.63
2023-02-01T10:18:16.205Z,4.64
2023-02-01T10:20:53.602Z,4.60
2023-02-01T10:23:34.924Z,4.61
2023-02-01T10:26:08.483Z,4.60
2023-02-01T10:28:37.058Z,4.59
2023-02-01T10:31:05.565Z,4.55
2023-02-01T10:33:44.332Z,4.57
2023-02-01T10:36:18.056Z,4.53
2023-02-01T10:38:46.770Z,4.55
2023-02-01T10:41:19.348Z,4.59
2023-02-01T10:43:50.531Z,4.61
2023-02-01T10:46:18.789Z,4.61
2023-02-01T10:48:47.681Z,4.56
2023-02-01T10:51:20.907Z,4.58
2023-02-01T10:53:52.865Z,4.56
2023-02-01T10:56:26.319Z,4.59
2023-02-01T10:59:02.306Z,4.62
2023-02-01T11:01:33.142Z,4.60
2023-02-01T11:04:02.505Z,4.59
2023-02-01T11:06:33.264Z,4.61
2023-02-01T11:09:14.866Z,4.62
2023-02-01T11:11:57.841Z,4.63
2023-02-01T11:14:36.175Z,4.61
2023-02-01T11:17:18.788Z,4.63
2023-02-01T11:19:47.408Z,4.67
2023-02-01T11:22:16.213Z,4.68
2023-02-01T11:24:47.125Z,4.68
2023-02-01T11:27:27.136Z,4.73
2023-02-01T11:29:59.890Z,4.76
2023-02-01T11:32:29.380Z,4.82
2023-02-01T11:34:59.416Z,4.88
2023-02-01T11:37:29.260Z,4.89
2023-02-01T11:39:59.116Z,4.91
2023-02-01T11:42:29.879Z,5.01
2023-02-01T11:45:20.501Z,5.07
2023-02-01T11:47:48.826Z,5.08
2023-02-01T11:50:18.648Z,5.05
2023-02-01T11:52:58.010Z,5.00
2023-02-01T11:55:42.034Z,4.98
2023-02-01T11:58:25.376Z,5.00
2023-02-01T12:01:03.883Z,5.00
2023-02-01T12:04:03.950Z,4.99
2023-02-01T12:06:42.194Z,4.89
2023-02-01T12:09:19.202Z,4.81
2023-02-01T12:12:01.689Z,4.75
2023-02-01T12:14:40.471Z,4.68
2023-02-01T12:17:25.821Z,4.64
2023-02-01T12:20:09.144Z,4.63
2023-02-01T12:22:48.077Z,4.59
2023-02-01T12:25:30.525Z,4.58
2023-02-01T12:28:21.806Z,4.61
2023-02-01T12:31:06.351Z,4.63
2023-02-01T12:33:46.054Z,4.66
2023-02-01T12:36:18.696Z,4.64
2023-02-01T12:39:00.456Z,4.72
2023-02-01T12:41:41.038Z,4.73
2023-02-01T12:44:13.484Z,4.75
2023-02-01T12:46:46.147Z,4.73
2023-02-01T12:49:17.862Z,4.69
2023-02-01T12:51:48.405Z,4.71
2023-02-01T12:54:21.507Z,4.76
2023-02-01T12:56:51.863Z,4.79
2023-02-01T12:59:23.479Z,4.78
2023-02-01T13:01:57.624Z,4.81
2023-02-01T13:04:29.341Z,4.75
2023-02-01T13:07:03.882Z,4.73
2023-02-01T13:09:36.833Z,4.75
2023-02-01T13:12:09.833Z,4.76
2023-02-01T13:14:41.136Z,4.74
2023-02-01T13:17:13.835Z,4.78
2023-02-01T13:19:47.341Z,4.78
2023-02-01T13:22:19.740Z,4.79
2023-02-01T13:24:50.257Z,4.77
2023-02-01T13:27:19.026Z,4.80
2023-02-01T13:29:52.378Z,4.79
2023-02-01T13:32:56.994Z,4.78
2023-02-01T13:35:47.971Z,4.75
2023-02-01T13:38:36.880Z,4.75
2023-02-01T13:41:18.244Z,4.72
2023-02-01T13:43:48.940Z,4.71
2023-02-01T13:46:18.147Z,4.74
2023-02-01T13:48:51.751Z,4.74
2023-02-01T13:51:35.009Z,4.75
2023-02-01T13:54:03.207Z,4.75
2023-02-01T13:56:42.303Z,4.73
2023-02-01T14:00:01.159Z,4.75
2023-02-01T14:02:50.917Z,4.76
2023-02-01T14:05:56.335Z,4.74
2023-02-01T14:08:39.139Z,4.72
2023-02-01T14:11:07.588Z,4.70
2023-02-01T14:13:37.061Z,4.69
2023-02-01T14:16:17.148Z,4.68
2023-02-01T14:18:59.540Z,4.68
2023-02-01T14:21:30.406Z,4.70
2023-02-01T14:24:02.336Z,4.70
2023-02-01T14:26:44.580Z,4.68
2023-02-01T14:29:24.718Z,4.67
2023-02-01T14:32:03.617Z,4.67
2023-02-01T14:34:37.008Z,4.68
2023-02-01T14:37:07.320Z,4.69
2023-02-01T14:39:41.040Z,4.69
2023-02-01T14:42:22.920Z,4.68
2023-02-01T14:44:59.096Z,4.69
2023-02-01T14:47:31.971Z,4.71
2023-02-01T14:50:24.239Z,4.71
2023-02-01T14:53:10.535Z,4.70
2023-02-01T14:55:43.123Z,4.68
2023-02-01T14:58:20.073Z,4.65
2023-02-01T15:00:51.125Z,4.65
2023-02-01T15:03:32.562Z,4.67
2023-02-01T15:06:01.952Z,4.66
2023-02-01T15:08:32.441Z,4.64
2023-02-01T15:11:05.063Z,4.65
2023-02-01T15:13:33.238Z,4.66
2023-02-01T15:16:26.801Z,4.64
2023-02-01T15:19:13.528Z,4.66
2023-02-01T15:21:47.336Z,4.62
2023-02-01T15:24:16.806Z,4.60
2023-02-01T15:26:46.645Z,4.60
2023-02-01T15:29:15.923Z,4.58
2023-02-01T15:31:46.062Z,4.57
2023-02-01T15:34:14.689Z,4.51
2023-02-01T15:36:56.615Z,4.50
2023-02-01T15:39:31.912Z,4.45
2023-02-01T15:42:04.122Z,4.46
2023-02-01T15:44:36.224Z,4.43
2023-02-01T15:47:10.297Z,4.43
2023-02-01T15:49:42.905Z,4.40
2023-02-01T15:52:28.101Z,4.41
2023-02-01T15:54:58.155Z,4.41
2023-02-01T15:57:32.514Z,4.42
2023-02-01T16:00:02.605Z,4.41
2023-02-01T16:02:46.221Z,4.40
2023-02-01T16:05:34.365Z,4.40
2023-02-01T16:08:05.614Z,4.40
2023-02-01T16:10:34.436Z,4.38
2023-02-01T16:13:03.904Z,4.41
2023-02-01T16:15:33.035Z,4.42
2023-02-01T16:18:01.246Z,4.41
2023-02-01T16:20:30.737Z,4.41
2023-02-01T16:22:59.068Z,4.42
2023-02-01T16:25:27.213Z,4.40
2023-02-01T16:27:55.822Z,4.43
2023-02-01T16:30:25.796Z,4.46
2023-02-01T16:32:56.035Z,4.46
2023-02-01T16:35:28.261Z,4.50
2023-02-01T16:37:57.020Z,4.51
2023-02-01T16:40:25.297Z,4.47
2023-02-01T16:42:56.190Z,4.49
2023-02-01T16:45:28.593Z,4.48
2023-02-01T16:47:58.237Z,4.49
2023-02-01T16:50:27.593Z,4.48
2023-02-01T16:52:55.929Z,4.47
2023-02-01T16:55:26.479Z,4.48
2023-02-01T16:57:54.849Z,4.47
2023-02-01T17:00:25.827Z,4.47
2023-02-01T17:02:56.342Z,4.53
2023-02-01T17:05:25.479Z,4.54
2023-02-01T17:07:54.602Z,4.54
2023-02-01T17:10:34.512Z,4.51
2023-02-01T17:13:03.845Z,4.52
2023-02-01T17:15:36.969Z,4.51
2023-02-01T17:18:07.995Z,4.49
2023-02-01T17:20:37.778Z,4.49
2023-02-01T17:23:06.069Z,4.48
2023-02-01T17:25:34.308Z,4.51
2023-02-01T17:28:02.998Z,4.52
2023-02-01T17:30:32.098Z,4.51
2023-02-01T17:33:10.177Z,4.47
2023-02-01T17:35:46.616Z,4.44
2023-02-01T17:38:15.431Z,4.45
2023-02-01T17:40:43.560Z,4.45
2023-02-01T17:43:15.237Z,4.43
2023-02-01T17:45:51.811Z,4.42
2023-02-01T17:48:21.145Z,4.41
2023-02-01T17:50:54.684Z,4.42
2023-02-01T17:53:24.698Z,4.38
2023-02-01T17:55:53.720Z,4.41
2023-02-01T17:58:22.851Z,4.40
2023-02-01T18:00:51.584Z,4.39
2023-02-01T18:03:24.917Z,4.37
2023-02-01T18:05:55.862Z,4.37
2023-02-01T18:08:25.526Z,4.37
2023-02-01T18:10:55.469Z,4.38
2023-02-01T18:13:24.031Z,4.38
2023-02-01T18:15:52.377Z,4.40
2023-02-01T18:18:20.766Z,4.41
2023-02-01T18:20:49.629Z,4.39
2023-02-01T18:23:21.791Z,4.42
2023-02-01T18:25:51.475Z,4.40
2023-02-01T18:28:20.624Z,4.41
2023-02-01T18:30:50.847Z,4.41
2023-02-01T18:33:20.287Z,4.39
2023-02-01T18:35:49.269Z,4.41
2023-02-01T18:38:19.224Z,4.42
2023-02-01T18:40:51.050Z,4.43
2023-02-01T18:43:19.498Z,4.42
2023-02-01T18:45:48.458Z,4.41
2023-02-01T18:48:19.575Z,4.42
2023-02-01T18:50:47.994Z,4.39
2023-02-01T18:53:20.078Z,4.41
2023-02-01T18:55:49.804Z,4.43
2023-02-01T18:58:18.930Z,4.43
2023-02-01T19:00:48.101Z,4.41
2023-02-01T19:03:16.928Z,4.43
2023-02-01T19:05:45.315Z,4.45
2023-02-01T19:08:13.518Z,4.44
2023-02-01T19:10:43.018Z,4.49
2023-02-01T19:13:14.297Z,4.51
2023-02-01T19:15:43.858Z,4.50
2023-02-01T19:18:12.451Z,4.50
2023-02-01T19:20:45.572Z,4.49
2023-02-01T19:23:14.474Z,4.47
2023-02-01T19:25:44.895Z,4.48
2023-02-01T19:28:14.384Z,4.49
2023-02-01T19:30:43.000Z,4.49
2023-02-01T19:33:11.221Z,4.48
2023-02-01T19:35:39.376Z,4.47
2023-02-01T19:38:07.902Z,4.45
2023-02-01T19:40:36.045Z,4.47
2023-02-01T19:43:04.364Z,4.47
2023-02-01T19:45:34.514Z,4.47
2023-02-01T19:48:03.347Z,4.45
2023-02-01T19:50:31.504Z,4.47
2023-02-01T19:52:59.679Z,4.48
2023-02-01T19:55:27.893Z,4.47
2023-02-01T19:57:56.124Z,4.47
2023-02-01T20:00:24.284Z,4.48
2023-02-01T20:02:54.088Z,4.49
2023-02-01T20:05:23.741Z,4.47
2023-02-01T20:07:52.532Z,4.45
2023-02-01T20:10:20.648Z,4.46
2023-02-01T20:12:49.529Z,4.46
2023-02-01T20:15:17.923Z,4.47
2023-02-01T20:17:46.085Z,4.48
2023-02-01T20:20:16.402Z,4.46
2023-02-01T20:22:45.396Z,4.45
2023-02-01T20:25:13.755Z,4.46
2023-02-01T20:27:42.770Z,4.48
2023-02-01T20:30:14.137Z,4.50
2023-02-01T20:32:42.338Z,4.50
2023-02-01T20:35:11.035Z,4.52
2023-02-01T20:37:42.775Z,4.56
2023-02-01T20:40:12.409Z,4.51
2023-02-01T20:42:41.643Z,4.51
2023-02-01T20:45:10.787Z,4.56
2023-02-01T20:47:39.080Z,4.56
2023-02-01T20:50:08.098Z,4.56
2023-02-01T20:52:36.529Z,4.57
2023-02-01T20:55:07.017Z,4.56
2023-02-01T20:57:35.293Z,4.52
2023-02-01T21:00:04.433Z,4.48
2023-02-01T21:02:32.592Z,4.45
2023-02-01T21:05:00.730Z,4.41
2023-02-01T21:07:28.880Z,4.37
2023-02-01T21:09:57.657Z,4.32
2023-02-01T21:12:27.183Z,4.24
2023-02-01T21:14:55.796Z,4.17
2023-02-01T21:17:25.632Z,4.10
2023-02-01T21:19:53.774Z,4.05
2023-02-01T21:22:22.196Z,4.03
2023-02-01T21:24:50.274Z,4.04
2023-02-01T21:27:18.597Z,4.04
2023-02-01T21:29:48.059Z,4.04
2023-02-01T21:32:16.535Z,4.08
2023-02-01T21:34:45.062Z,4.09
2023-02-01T21:37:13.159Z,4.13
2023-02-01T21:39:41.528Z,4.16
2023-02-01T21:42:18.220Z,4.18
2023-02-01T21:44:48.515Z,4.18
2023-02-01T21:47:26.133Z,4.19
2023-02-01T21:49:57.072Z,4.20
2023-02-01T21:52:25.299Z,4.19
2023-02-01T21:54:59.434Z,4.17
2023-02-01T21:57:28.129Z,4.18
2023-02-01T21:59:58.954Z,4.19
2023-02-01T22:02:27.428Z,4.16
2023-02-01T22:04:57.778Z,4.17
2023-02-01T22:07:26.170Z,4.17
2023-02-01T22:09:54.726Z,4.19
2023-02-01T22:12:23.484Z,4.19
2023-02-01T22:14:52.400Z,4.19
2023-02-01T22:17:22.388Z,4.19
2023-02-01T22:19:51.140Z,4.22
2023-02-01T22:22:19.346Z,4.23
2023-02-01T22:24:47.908Z,4.25
2023-02-01T22:27:16.717Z,4.29
2023-02-01T22:29:44.877Z,4.29
2023-02-01T22:32:14.107Z,4.31
2023-02-01T22:34:43.661Z,4.35
2023-02-01T22:37:12.306Z,4.36
2023-02-01T22:39:41.366Z,4.35
2023-02-01T22:42:09.693Z,4.36
2023-02-01T22:44:37.841Z,4.36
2023-02-01T22:47:06.306Z,4.40
2023-02-01T22:49:34.402Z,4.40
2023-02-01T22:52:03.863Z,4.38
2023-02-01T22:54:32.014Z,4.39
2023-02-01T22:57:00.331Z,4.40
2023-02-01T22:59:28.510Z,4.41
2023-02-01T23:01:56.617Z,4.40
2023-02-01T23:04:24.859Z,4.37
2023-02-01T23:06:53.185Z,4.36
2023-02-01T23:09:25.188Z,4.32
2023-02-01T23:11:53.941Z,4.30
2023-02-01T23:14:22.616Z,4.30
2023-02-01T23:16:51.249Z,4.30
2023-02-01T23:19:20.645Z,4.28
2023-02-01T23:21:49.692Z,4.27
2023-02-01T23:24:18.358Z,4.25
2023-02-01T23:26:48.029Z,4.22
2023-02-01T23:29:19.155Z,4.20
2023-02-01T23:31:47.461Z,4.18
2023-02-01T23:34:15.993Z,4.19
2023-02-01T23:36:44.351Z,4.16
2023-02-01T23:39:12.552Z,4.16
2023-02-01T23:41:40.909Z,4.10
2023-02-01T23:44:10.864Z,4.05
2023-02-01T23:46:41.107Z,4.03
2023-02-01T23:49:11.073Z,3.96
2023-02-01T23:51:39.352Z,3.96
2023-02-01T23:54:08.309Z,3.96
2023-02-01T23:56:38.287Z,3.94
2023-02-01T23:59:08.301Z,3.95
